Herk-de-Stad, Belgium
Current Conditions -  °F | °C
As of 1:25 AM on Friday 28 Nov 2014 (Local Time) from EBDT Reporting Station
Scattered Clouds Scattered Clouds  
Wind Chill:   Ceiling: Unl
Heat Index:   Visibility: 4mi
Dew Point:   Wind: 7mph
Humidity: 93%   Direction: 140°SE
Pressure: 29.71"   Gusts: NA
Location:  50.94°N, 5.17°E
Report Text: EBDT 280025Z AUTO 14006KT 6000 FEW011/// SCT050/// 08/07 Q1006 WHT
Loading
Personal Weather Stations






























Interactive Weather Map New forecast layout! Learn more

10-Day Weather Forecast

Advertisements
Track Severe Weather on mobile